Time;durP1;ratioP1;P1;durP2;ratioP2;P2;SDS_P1;SDS_P2;PMS_P1;PMS_P2;Temp;Humidity;BMP_temperature;BMP_pressure;BME280_temperature;BME280_humidity;BME280_pressure;Samples;Min_cycle;Max_cycle;Signal;HPM_P1;HPM_P2
2023/05/20 00:01:21;;;;;;;7.10;4.97;;;12.80;1.00;;;;;;5029880;28;20560;-72
2023/05/20 00:03:48;;;;;;;5.87;4.30;;;12.80;1.00;;;;;;5029201;28;20463;-71
2023/05/20 00:06:15;;;;;;;7.10;4.23;;;12.70;1.00;;;;;;5026337;28;20463;-72
2023/05/20 00:08:42;;;;;;;4.50;4.10;;;12.70;1.00;;;;;;5026882;28;20529;-72
2023/05/20 00:11:10;;;;;;;4.03;3.70;;;12.60;1.00;;;;;;5026169;28;20573;-72
2023/05/20 00:13:38;;;;;;;7.40;4.77;;;12.60;1.00;;;;;;5025668;28;20534;-71
2023/05/20 00:16:06;;;;;;;4.73;3.90;;;12.60;1.00;;;;;;5023669;28;20423;-73
2023/05/20 00:18:33;;;;;;;4.30;3.90;;;12.60;1.00;;;;;;5023686;28;20531;-72
2023/05/20 00:20:59;;;;;;;4.33;3.93;;;12.50;1.00;;;;;;5022035;28;20466;-77
2023/05/20 00:23:26;;;;;;;4.50;4.10;;;12.60;1.00;;;;;;5030868;28;20459;-72
2023/05/20 00:25:53;;;;;;;5.83;4.80;;;12.50;1.00;;;;;;5029824;28;20554;-73
2023/05/20 00:28:22;;;;;;;3.93;3.63;;;12.50;1.00;;;;;;5027862;28;21821;-73
2023/05/20 00:30:51;;;;;;;5.40;4.80;;;12.40;1.00;;;;;;5026048;28;20471;-72
2023/05/20 00:33:18;;;;;;;6.10;4.30;;;12.40;1.00;;;;;;5023028;28;20468;-72
2023/05/20 00:35:44;;;;;;;5.33;4.30;;;12.30;1.00;;;;;;5027317;28;20485;-72
2023/05/20 00:38:11;;;;;;;4.30;3.90;;;12.30;1.00;;;;;;5021804;28;20473;-72
2023/05/20 00:40:38;;;;;;;4.70;4.20;;;12.30;1.00;;;;;;5025537;28;20470;-75
2023/05/20 00:43:05;;;;;;;5.30;4.23;;;12.30;1.00;;;;;;5025484;28;20581;-72
2023/05/20 00:45:32;;;;;;;5.00;3.87;;;12.20;1.00;;;;;;5023439;28;21528;-71
2023/05/20 00:48:02;;;;;;;4.40;4.00;;;12.20;1.00;;;;;;5027477;28;20550;-72
2023/05/20 00:50:29;;;;;;;4.70;4.30;;;12.10;1.00;;;;;;5026517;28;20547;-72
2023/05/20 00:52:57;;;;;;;4.50;3.90;;;12.10;1.00;;;;;;5026336;28;20540;-72
2023/05/20 00:55:24;;;;;;;5.23;4.53;;;12.10;1.00;;;;;;5024128;28;20573;-71
2023/05/20 00:57:53;;;;;;;5.53;4.70;;;12.10;1.00;;;;;;5029075;28;20473;-72
2023/05/20 01:00:19;;;;;;;4.87;4.47;;;12.00;1.00;;;;;;5025974;28;20545;-69
2023/05/20 01:02:47;;;;;;;4.47;4.07;;;12.00;1.00;;;;;;5038286;22;21184;-69
2023/05/20 01:05:15;;;;;;;4.83;4.43;;;11.90;1.00;;;;;;5057907;28;20826;-69
2023/05/20 01:07:43;;;;;;;5.00;4.50;;;11.90;1.00;;;;;;5062903;28;20456;-69
2023/05/20 01:10:10;;;;;;;4.60;4.20;;;11.90;1.00;;;;;;5064876;28;20475;-68
2023/05/20 01:12:40;;;;;;;4.53;4.13;;;11.90;1.00;;;;;;5061876;28;20449;-69
2023/05/20 01:15:10;;;;;;;4.50;3.87;;;11.90;1.00;;;;;;5067757;28;20557;-68
2023/05/20 01:17:40;;;;;;;5.20;4.10;;;11.90;1.00;;;;;;5060953;28;20885;-69
2023/05/20 01:20:12;;;;;;;4.80;4.40;;;11.80;1.00;;;;;;5065546;28;20495;-68
2023/05/20 01:22:47;;;;;;;5.83;4.60;;;11.80;1.00;;;;;;5064394;28;20471;-69
2023/05/20 01:25:17;;;;;;;6.93;4.23;;;11.80;1.00;;;;;;5063110;28;20459;-69
2023/05/20 01:27:44;;;;;;;6.43;4.80;;;11.70;1.00;;;;;;5062650;28;20466;-69
2023/05/20 01:30:12;;;;;;;5.17;4.50;;;11.70;1.00;;;;;;5063850;28;20549;-69
2023/05/20 01:32:47;;;;;;;5.37;4.40;;;11.60;1.00;;;;;;5064109;28;20455;-69
2023/05/20 01:35:16;;;;;;;5.90;4.70;;;11.60;1.00;;;;;;5064030;28;20467;-69
2023/05/20 01:37:48;;;;;;;4.97;4.47;;;11.60;1.00;;;;;;5063995;28;20551;-68
2023/05/20 01:40:16;;;;;;;4.60;4.20;;;11.60;1.00;;;;;;5066319;28;20476;-68
2023/05/20 01:42:45;;;;;;;4.00;3.70;;;11.60;1.00;;;;;;5062544;28;21373;-68
2023/05/20 01:45:12;;;;;;;5.37;4.70;;;11.60;1.00;;;;;;5063686;28;20471;-69
2023/05/20 01:47:39;;;;;;;6.70;4.40;;;11.60;1.00;;;;;;5067442;28;20526;-68
2023/05/20 01:50:07;;;;;;;6.97;4.70;;;11.60;1.00;;;;;;5054844;28;20474;-68
2023/05/20 01:52:35;;;;;;;4.40;3.63;;;11.60;1.00;;;;;;5066516;28;20589;-68
2023/05/20 01:55:03;;;;;;;4.67;4.27;;;11.60;1.00;;;;;;5061210;28;20522;-68
2023/05/20 01:57:33;;;;;;;4.80;4.40;;;11.60;1.00;;;;;;5062171;28;20450;-69
2023/05/20 02:00:00;;;;;;;7.03;4.00;;;11.50;1.00;;;;;;5065020;28;20467;-66
2023/05/20 02:02:27;;;;;;;4.63;3.60;;;11.60;1.00;;;;;;5064210;28;20488;-67
2023/05/20 02:04:55;;;;;;;5.40;4.90;;;11.60;1.00;;;;;;5063920;28;20474;-68
2023/05/20 02:07:22;;;;;;;4.83;4.43;;;11.60;1.00;;;;;;5061581;28;20471;-69
2023/05/20 02:09:49;;;;;;;5.73;4.23;;;11.50;1.00;;;;;;5064048;28;20566;-68
2023/05/20 02:12:18;;;;;;;7.10;4.30;;;11.50;1.00;;;;;;5062061;28;20476;-69
2023/05/20 02:14:46;;;;;;;5.70;4.97;;;11.50;1.00;;;;;;5063794;28;20514;-69
2023/05/20 02:17:15;;;;;;;6.30;4.90;;;11.60;1.00;;;;;;5063649;28;20456;-69
2023/05/20 02:19:42;;;;;;;4.80;4.37;;;11.60;1.00;;;;;;5062196;28;20536;-68
2023/05/20 02:22:10;;;;;;;4.87;4.20;;;11.50;1.00;;;;;;5063270;28;20480;-68
2023/05/20 02:24:37;;;;;;;7.93;4.97;;;11.60;1.00;;;;;;5059372;28;20460;-68
2023/05/20 02:27:05;;;;;;;7.10;4.50;;;11.50;1.00;;;;;;5057971;28;20488;-69
2023/05/20 02:29:33;;;;;;;4.77;4.33;;;11.50;1.00;;;;;;5059995;28;20914;-69
2023/05/20 02:32:02;;;;;;;6.30;4.87;;;11.50;1.00;;;;;;5062519;28;20455;-69
2023/05/20 02:34:31;;;;;;;4.30;3.93;;;11.60;1.00;;;;;;5063903;28;20472;-67
2023/05/20 02:36:58;;;;;;;5.17;4.67;;;11.60;1.00;;;;;;5059460;28;21430;-68
2023/05/20 02:39:25;;;;;;;5.23;4.43;;;11.60;1.00;;;;;;5062594;28;20555;-68
2023/05/20 02:41:52;;;;;;;5.23;4.73;;;11.70;1.00;;;;;;5063348;28;22094;-68
2023/05/20 02:44:19;;;;;;;5.40;4.50;;;11.80;1.00;;;;;;5060625;28;20975;-68
2023/05/20 02:46:47;;;;;;;4.97;4.43;;;11.80;1.00;;;;;;5071819;28;20463;-68
2023/05/20 02:49:14;;;;;;;4.50;4.10;;;11.80;1.00;;;;;;5062394;28;20574;-68
2023/05/20 02:51:41;;;;;;;7.33;5.50;;;11.90;1.00;;;;;;5062393;28;21174;-68
2023/05/20 02:54:08;;;;;;;6.20;5.00;;;11.90;1.00;;;;;;5064158;28;20498;-68
2023/05/20 02:56:35;;;;;;;7.20;4.50;;;11.80;1.00;;;;;;5064612;28;20526;-69
2023/05/20 02:59:03;;;;;;;5.10;4.70;;;11.90;1.00;;;;;;5060578;28;20979;-68
2023/05/20 03:01:32;;;;;;;4.60;4.20;;;11.90;1.00;;;;;;5061953;28;20448;-68
2023/05/20 03:04:01;;;;;;;5.20;4.70;;;12.00;1.00;;;;;;5057463;28;21116;-68
2023/05/20 03:06:28;;;;;;;4.83;4.37;;;12.00;1.00;;;;;;5061479;28;20900;-69
2023/05/20 03:08:57;;;;;;;5.70;5.20;;;12.00;1.00;;;;;;5062861;28;20471;-68
2023/05/20 03:11:24;;;;;;;5.77;4.67;;;12.10;1.00;;;;;;5062627;28;20456;-68
2023/05/20 03:13:51;;;;;;;6.63;5.27;;;12.10;1.00;;;;;;5067986;28;20505;-69
2023/05/20 03:16:18;;;;;;;5.40;4.70;;;12.10;1.00;;;;;;5064492;28;20480;-69
2023/05/20 03:18:46;;;;;;;6.40;4.30;;;12.10;1.00;;;;;;5062356;28;20468;-69
2023/05/20 03:21:14;;;;;;;7.00;4.97;;;12.10;1.00;;;;;;5060129;28;20451;-69
2023/05/20 03:23:41;;;;;;;9.90;5.83;;;12.20;1.00;;;;;;5064987;28;20464;-68
2023/05/20 03:26:08;;;;;;;5.33;4.60;;;12.20;1.00;;;;;;5061977;28;20537;-69
2023/05/20 03:28:36;;;;;;;5.97;4.50;;;12.20;1.00;;;;;;5064339;28;20472;-69
2023/05/20 03:31:05;;;;;;;5.97;4.60;;;12.20;1.00;;;;;;5066911;28;20842;-69
2023/05/20 03:33:34;;;;;;;5.30;4.80;;;12.20;1.00;;;;;;5064715;28;20610;-68
2023/05/20 03:36:01;;;;;;;5.63;5.13;;;12.20;1.00;;;;;;5061841;28;20471;-69
2023/05/20 03:38:30;;;;;;;6.73;5.17;;;12.20;1.00;;;;;;5050431;28;20531;-69
2023/05/20 03:40:57;;;;;;;8.80;5.73;;;12.20;1.00;;;;;;5066899;28;20456;-69
2023/05/20 03:43:25;;;;;;;9.23;5.13;;;12.20;1.00;;;;;;5066840;28;20467;-69
2023/05/20 03:45:52;;;;;;;5.90;4.90;;;12.30;1.00;;;;;;5067845;28;21329;-69
2023/05/20 03:48:20;;;;;;;5.90;4.17;;;12.30;1.00;;;;;;5062130;28;20475;-69
2023/05/20 03:50:47;;;;;;;7.17;4.73;;;12.30;1.00;;;;;;5064666;28;20967;-69
2023/05/20 03:53:14;;;;;;;5.53;4.83;;;12.40;1.00;;;;;;5065287;28;20456;-68
2023/05/20 03:55:43;;;;;;;6.90;5.60;;;12.40;1.00;;;;;;5059115;28;20598;-68
2023/05/20 03:58:12;;;;;;;5.27;4.73;;;12.40;1.00;;;;;;5064479;28;20541;-68
2023/05/20 04:00:40;;;;;;;4.60;4.20;;;12.40;1.00;;;;;;5066408;28;20458;-68
2023/05/20 04:03:07;;;;;;;6.70;5.17;;;12.50;1.00;;;;;;5061633;28;20468;-69
2023/05/20 04:05:36;;;;;;;6.00;4.67;;;12.40;1.00;;;;;;5061249;28;20981;-69
2023/05/20 04:08:04;;;;;;;6.50;5.37;;;12.50;1.00;;;;;;5067580;28;21432;-68
2023/05/20 04:10:32;;;;;;;6.67;5.33;;;12.50;1.00;;;;;;5058454;28;20478;-68
2023/05/20 04:13:03;;;;;;;6.10;5.50;;;12.50;1.00;;;;;;5064089;28;20479;-68
2023/05/20 04:15:30;;;;;;;7.73;5.60;;;12.40;1.00;;;;;;5063207;28;20468;-69
2023/05/20 04:17:57;;;;;;;7.20;4.60;;;12.40;1.00;;;;;;5065519;28;20461;-68
2023/05/20 04:20:24;;;;;;;6.83;4.40;;;12.40;1.00;;;;;;5064973;28;20538;-68
2023/05/20 04:22:52;;;;;;;5.97;5.03;;;12.40;1.00;;;;;;5068154;28;20459;-69
2023/05/20 04:25:20;;;;;;;5.70;4.30;;;12.50;1.00;;;;;;5068222;28;20461;-68
2023/05/20 04:27:48;;;;;;;8.93;5.73;;;12.60;1.00;;;;;;5068867;28;20491;-68
2023/05/20 04:30:17;;;;;;;6.30;5.40;;;12.50;1.00;;;;;;5062340;28;20518;-68
2023/05/20 04:32:44;;;;;;;8.13;5.87;;;12.50;1.00;;;;;;5064854;28;20464;-68
2023/05/20 04:35:12;;;;;;;5.50;4.93;;;12.60;1.00;;;;;;5060476;28;20903;-69
2023/05/20 04:37:40;;;;;;;6.80;5.47;;;12.50;1.00;;;;;;5067605;28;20497;-69
2023/05/20 04:40:09;;;;;;;6.03;5.43;;;12.60;1.00;;;;;;5066146;28;20760;-69
2023/05/20 04:42:36;;;;;;;5.67;4.90;;;12.60;1.00;;;;;;5046036;28;20973;-69
2023/05/20 04:45:04;;;;;;;5.63;5.13;;;12.60;1.00;;;;;;5063192;28;20475;-68
2023/05/20 04:47:37;;;;;;;9.20;5.83;;;12.70;1.00;;;;;;5062618;28;20917;-68
2023/05/20 04:50:09;;;;;;;8.47;5.90;;;12.70;1.00;;;;;;5062804;28;20453;-67
2023/05/20 04:52:36;;;;;;;8.17;5.73;;;12.60;1.00;;;;;;5064165;28;20476;-68
2023/05/20 04:55:03;;;;;;;7.37;6.20;;;12.60;1.00;;;;;;5061944;28;20492;-68
2023/05/20 04:57:32;;;;;;;6.40;5.80;;;12.60;1.00;;;;;;5065031;28;20555;-68
2023/05/20 05:00:06;;;;;;;6.30;5.70;;;12.60;1.00;;;;;;5064073;28;20462;-69
2023/05/20 05:02:34;;;;;;;7.50;5.40;;;12.60;1.00;;;;;;5039691;28;20468;-67
2023/05/20 05:05:02;;;;;;;6.70;5.50;;;12.70;1.00;;;;;;5044540;28;20450;-68
2023/05/20 05:07:29;;;;;;;8.20;5.40;;;12.70;1.00;;;;;;5064039;28;20902;-68
2023/05/20 05:09:56;;;;;;;6.23;5.73;;;12.80;1.00;;;;;;5055152;28;20568;-69
2023/05/20 05:12:23;;;;;;;8.30;5.70;;;12.80;1.00;;;;;;5062528;28;20485;-69
2023/05/20 05:14:50;;;;;;;5.63;5.03;;;12.90;1.00;;;;;;5063870;28;20454;-71
2023/05/20 05:17:17;;;;;;;6.40;5.40;;;12.90;1.00;;;;;;5065041;28;20932;-68
2023/05/20 05:19:45;;;;;;;6.80;5.47;;;12.90;1.00;;;;;;5060650;28;20465;-68
2023/05/20 05:22:12;;;;;;;7.47;6.70;;;12.90;1.00;;;;;;5065003;28;20519;-69
2023/05/20 05:24:39;;;;;;;5.50;5.00;;;12.80;1.00;;;;;;5064568;28;20473;-69
2023/05/20 05:27:06;;;;;;;6.20;5.23;;;12.80;1.00;;;;;;5065009;28;20502;-69
2023/05/20 05:29:33;;;;;;;8.33;6.00;;;12.80;1.00;;;;;;5062789;28;20443;-69
2023/05/20 05:32:00;;;;;;;6.50;5.90;;;12.90;1.00;;;;;;5066565;28;20551;-69
2023/05/20 05:34:27;;;;;;;7.90;6.13;;;12.90;1.00;;;;;;5063981;28;20861;-68
2023/05/20 05:36:56;;;;;;;7.63;6.77;;;13.00;1.00;;;;;;5064276;27;20632;-69
2023/05/20 05:39:23;;;;;;;7.60;6.57;;;13.00;1.00;;;;;;5063882;28;20461;-68
2023/05/20 05:41:50;;;;;;;6.20;5.23;;;13.00;1.00;;;;;;5067196;27;20475;-69
2023/05/20 05:44:17;;;;;;;6.30;5.67;;;13.00;1.00;;;;;;5060543;28;20480;-69
2023/05/20 05:46:44;;;;;;;6.93;6.37;;;13.10;1.00;;;;;;5065919;28;21418;-69
2023/05/20 05:49:10;;;;;;;9.53;6.53;;;13.10;1.00;;;;;;5061782;28;20453;-69
2023/05/20 05:51:37;;;;;;;6.70;5.70;;;13.20;1.00;;;;;;5065796;28;20490;-68
2023/05/20 05:54:06;;;;;;;6.80;6.13;;;13.20;1.00;;;;;;5062276;27;20454;-68
2023/05/20 05:56:33;;;;;;;8.37;6.03;;;13.20;1.00;;;;;;5066781;28;21597;-69
2023/05/20 05:59:00;;;;;;;6.27;5.67;;;13.30;1.00;;;;;;5065416;28;20657;-69
2023/05/20 06:01:26;;;;;;;8.10;6.90;;;13.40;1.00;;;;;;5066411;28;20987;-69
2023/05/20 06:03:54;;;;;;;9.07;6.70;;;13.50;1.00;;;;;;5065560;28;20460;-68
2023/05/20 06:06:20;;;;;;;7.97;6.63;;;13.50;1.00;;;;;;5061592;28;20486;-70
2023/05/20 06:08:47;;;;;;;6.90;6.10;;;13.60;1.00;;;;;;5063769;28;20481;-68
2023/05/20 06:11:16;;;;;;;7.93;7.07;;;13.70;1.00;;;;;;5062901;28;20540;-69
2023/05/20 06:13:43;;;;;;;7.40;5.93;;;13.70;1.00;;;;;;5065443;27;20545;-68
2023/05/20 06:16:09;;;;;;;9.53;6.83;;;13.70;1.00;;;;;;5068099;28;20558;-68
2023/05/20 06:18:37;;;;;;;7.90;7.17;;;13.60;1.00;;;;;;5063851;28;20557;-68
2023/05/20 06:21:05;;;;;;;7.93;6.60;;;13.70;1.00;;;;;;5066312;28;20462;-68
2023/05/20 06:23:34;;;;;;;7.67;6.77;;;13.70;1.00;;;;;;5065493;27;20533;-68
2023/05/20 06:26:01;;;;;;;8.53;6.57;;;13.80;1.00;;;;;;5067415;28;20503;-69
2023/05/20 06:28:29;;;;;;;9.27;7.10;;;14.00;1.00;;;;;;5068625;28;20469;-69
2023/05/20 06:30:57;;;;;;;6.43;5.87;;;14.10;1.00;;;;;;5065077;28;20490;-68
2023/05/20 06:33:25;;;;;;;16.80;7.20;;;14.10;1.00;;;;;;5062808;28;20946;-69
2023/05/20 06:35:52;;;;;;;6.83;6.17;;;14.20;1.00;;;;;;5066868;28;20458;-69
2023/05/20 06:38:19;;;;;;;7.40;5.57;;;14.20;1.00;;;;;;5063827;28;20462;-70
2023/05/20 06:40:48;;;;;;;7.83;7.07;;;14.20;1.00;;;;;;5065140;28;20463;-69
2023/05/20 06:43:15;;;;;;;8.30;6.87;;;14.30;1.00;;;;;;5063331;28;20531;-69
2023/05/20 06:45:43;;;;;;;10.13;6.80;;;14.30;1.00;;;;;;5060999;28;21247;-69
2023/05/20 06:48:11;;;;;;;12.80;8.07;;;14.30;1.00;;;;;;5062285;28;20489;-70
2023/05/20 06:50:38;;;;;;;9.37;7.60;;;14.20;1.00;;;;;;5064462;28;20466;-69
2023/05/20 06:53:05;;;;;;;8.57;6.40;;;14.20;1.00;;;;;;5061106;28;20459;-70
2023/05/20 06:55:32;;;;;;;8.17;7.10;;;14.40;1.00;;;;;;5063625;28;21233;-69
2023/05/20 06:57:59;;;;;;;7.27;6.10;;;14.50;1.00;;;;;;5061072;28;20455;-69
2023/05/20 07:00:26;;;;;;;8.47;6.60;;;14.70;1.00;;;;;;5062716;28;20469;-70
2023/05/20 07:02:54;;;;;;;8.53;6.93;;;14.70;1.00;;;;;;5066317;28;20466;-69
2023/05/20 07:05:23;;;;;;;8.73;7.83;;;14.70;1.00;;;;;;5062612;28;20564;-69
2023/05/20 07:07:50;;;;;;;7.00;6.33;;;14.90;1.00;;;;;;5065472;28;20456;-68
2023/05/20 07:10:17;;;;;;;7.60;6.80;;;15.00;1.00;;;;;;5064915;28;20471;-68
2023/05/20 07:12:43;;;;;;;7.73;6.60;;;15.00;1.00;;;;;;5067914;28;20458;-69
2023/05/20 07:15:11;;;;;;;7.23;6.53;;;14.90;1.00;;;;;;5066663;28;20488;-69
2023/05/20 07:17:38;;;;;;;7.27;6.20;;;14.90;1.00;;;;;;5066796;28;21190;-69
2023/05/20 07:20:08;;;;;;;7.37;6.57;;;15.00;1.00;;;;;;5066353;28;20483;-69
2023/05/20 07:22:35;;;;;;;7.73;6.63;;;15.00;1.00;;;;;;5067456;28;20539;-69
2023/05/20 07:25:02;;;;;;;6.87;6.23;;;15.00;1.00;;;;;;5065199;28;20534;-69
2023/05/20 07:27:29;;;;;;;6.83;6.23;;;15.00;1.00;;;;;;5068026;28;20455;-69
2023/05/20 07:29:55;;;;;;;7.80;6.60;;;15.10;1.00;;;;;;5064876;28;20464;-69
2023/05/20 07:32:22;;;;;;;7.83;6.70;;;15.10;1.00;;;;;;5064822;28;20478;-72
2023/05/20 07:34:49;;;;;;;8.00;6.53;;;15.20;1.00;;;;;;5062473;27;20565;-69
2023/05/20 07:37:18;;;;;;;6.93;6.17;;;15.40;1.00;;;;;;5063330;28;20456;-68
2023/05/20 07:39:45;;;;;;;8.53;7.00;;;15.40;1.00;;;;;;5069496;28;20473;-68
2023/05/20 07:42:20;;;;;;;9.50;6.80;;;15.50;1.00;;;;;;5063106;28;20514;-68
2023/05/20 07:44:47;;;;;;;8.40;6.67;;;15.50;1.00;;;;;;5068899;28;20870;-68
2023/05/20 07:47:14;;;;;;;8.03;7.20;;;15.60;1.00;;;;;;5065466;28;20487;-68
2023/05/20 07:49:43;;;;;;;9.87;6.37;;;15.60;1.00;;;;;;5062767;27;20912;-68
2023/05/20 07:52:10;;;;;;;7.40;6.37;;;15.60;1.00;;;;;;5066114;28;20466;-69
2023/05/20 07:54:38;;;;;;;7.43;6.67;;;15.70;1.00;;;;;;5062726;27;20968;-69
2023/05/20 07:57:06;;;;;;;8.07;6.80;;;15.70;1.00;;;;;;5078021;28;20448;-69
2023/05/20 07:59:33;;;;;;;6.83;6.20;;;15.90;1.00;;;;;;5052809;28;20476;-69
2023/05/20 08:02:00;;;;;;;8.93;6.60;;;16.10;1.00;;;;;;5075054;28;20472;-68
2023/05/20 08:04:29;;;;;;;7.37;6.67;;;16.20;1.00;;;;;;5065065;27;21024;-70
2023/05/20 08:06:58;;;;;;;7.43;6.47;;;16.30;1.00;;;;;;5066203;28;20441;-69
2023/05/20 08:09:24;;;;;;;7.63;6.40;;;16.40;1.00;;;;;;5063936;28;20550;-69
2023/05/20 08:11:53;;;;;;;6.27;5.70;;;16.50;1.00;;;;;;5067112;28;20463;-69
2023/05/20 08:14:20;;;;;;;10.03;6.70;;;16.70;1.00;;;;;;5067891;28;20557;-68
2023/05/20 08:16:47;;;;;;;7.37;6.67;;;16.70;1.00;;;;;;5066910;27;20538;-70
2023/05/20 08:19:14;;;;;;;6.50;5.87;;;16.80;1.00;;;;;;5064017;27;20880;-68
2023/05/20 08:21:41;;;;;;;6.97;6.37;;;17.00;1.00;;;;;;5066166;28;22336;-69
2023/05/20 08:24:12;;;;;;;7.30;6.70;;;17.00;1.00;;;;;;5060732;28;20471;-69
2023/05/20 08:26:39;;;;;;;6.53;5.93;;;17.10;1.00;;;;;;5062637;28;20455;-69
2023/05/20 08:29:08;;;;;;;6.60;6.00;;;17.20;1.00;;;;;;5068062;28;20503;-69
2023/05/20 08:31:35;;;;;;;6.13;5.63;;;17.20;1.00;;;;;;5071804;28;20447;-69
2023/05/20 08:34:02;;;;;;;8.30;6.40;;;17.30;1.00;;;;;;5061899;28;20539;-69
2023/05/20 08:36:30;;;;;;;6.67;6.07;;;17.40;1.00;;;;;;5066686;28;20475;-68
2023/05/20 08:38:57;;;;;;;6.27;5.67;;;17.50;1.00;;;;;;5065783;28;20513;-68
2023/05/20 08:41:24;;;;;;;7.70;6.90;;;17.60;1.00;;;;;;5063462;28;20534;-68
2023/05/20 08:43:54;;;;;;;6.30;5.70;;;17.50;1.00;;;;;;5066065;28;20934;-69
2023/05/20 08:46:23;;;;;;;7.10;6.50;;;17.30;1.00;;;;;;5060834;28;20468;-69
2023/05/20 08:48:50;;;;;;;5.53;5.13;;;17.10;1.00;;;;;;5065256;27;20448;-70
2023/05/20 08:51:22;;;;;;;7.90;7.20;;;17.10;1.00;;;;;;5060698;28;20472;-69
2023/05/20 08:53:52;;;;;;;6.80;6.10;;;16.90;1.00;;;;;;5067250;28;20483;-69
2023/05/20 08:56:20;;;;;;;8.50;6.50;;;17.00;1.00;;;;;;5068233;28;20464;-69
2023/05/20 08:58:48;;;;;;;7.57;6.80;;;16.90;1.00;;;;;;5067689;28;20468;-68
2023/05/20 09:01:15;;;;;;;6.10;5.50;;;16.90;1.00;;;;;;5063419;28;20539;-69
2023/05/20 09:03:44;;;;;;;9.27;6.70;;;16.90;1.00;;;;;;5067200;28;21223;-69
2023/05/20 09:06:16;;;;;;;7.00;6.40;;;16.90;1.00;;;;;;5060351;28;20480;-69
2023/05/20 09:08:43;;;;;;;7.43;6.23;;;16.80;1.00;;;;;;5068435;28;20534;-70
2023/05/20 09:11:11;;;;;;;7.17;6.47;;;17.00;1.00;;;;;;5064622;28;20457;-69
2023/05/20 09:13:37;;;;;;;9.43;6.67;;;17.00;1.00;;;;;;5065303;28;20477;-69
2023/05/20 09:16:05;;;;;;;7.70;6.40;;;17.20;1.00;;;;;;5060679;28;21207;-69
2023/05/20 09:18:32;;;;;;;9.23;7.13;;;17.40;1.00;;;;;;5062510;28;20448;-68
2023/05/20 09:21:05;;;;;;;7.37;5.80;;;17.40;1.00;;;;;;5062662;28;20456;-68
2023/05/20 09:23:32;;;;;;;8.10;7.27;;;17.40;1.00;;;;;;5064526;27;20457;-67
2023/05/20 09:26:03;;;;;;;8.13;7.40;;;17.70;1.00;;;;;;5058675;28;20476;-68
2023/05/20 09:28:30;;;;;;;9.33;7.07;;;17.70;1.00;;;;;;5063003;28;20492;-69
2023/05/20 09:30:58;;;;;;;7.83;7.13;;;17.60;1.00;;;;;;5065604;28;20542;-69
2023/05/20 09:33:30;;;;;;;10.37;8.63;;;17.50;1.00;;;;;;5062595;28;20478;-69
2023/05/20 09:36:05;;;;;;;9.13;8.30;;;17.40;1.00;;;;;;5066550;28;20974;-69
2023/05/20 09:38:38;;;;;;;9.60;8.60;;;17.40;1.00;;;;;;5064620;28;20919;-68
2023/05/20 09:41:07;;;;;;;10.70;9.60;;;17.30;1.00;;;;;;5060170;28;20766;-69
2023/05/20 09:43:35;;;;;;;11.90;9.07;;;17.40;1.00;;;;;;5065297;28;20460;-68
2023/05/20 09:46:04;;;;;;;10.63;9.47;;;17.40;1.00;;;;;;5066747;28;20577;-68
2023/05/20 09:48:31;;;;;;;10.30;9.40;;;17.50;1.00;;;;;;5066216;28;20473;-68
2023/05/20 09:50:59;;;;;;;9.60;8.73;;;17.50;1.00;;;;;;5061964;28;20544;-68
2023/05/20 09:53:28;;;;;;;9.87;8.97;;;17.40;1.00;;;;;;5066614;28;20470;-70
2023/05/20 09:55:55;;;;;;;13.10;11.40;;;17.40;1.00;;;;;;5066127;27;20488;-68
2023/05/20 09:58:24;;;;;;;10.20;9.30;;;17.20;1.00;;;;;;5063505;28;20954;-69
2023/05/20 10:00:51;;;;;;;12.30;9.83;;;17.20;1.00;;;;;;5071033;28;20552;-69
2023/05/20 10:03:19;;;;;;;8.90;7.90;;;17.20;1.00;;;;;;5061498;27;20480;-69
2023/05/20 10:05:54;;;;;;;12.17;10.97;;;17.30;1.00;;;;;;5062126;28;20477;-68
2023/05/20 10:08:48;;;;;;;11.03;9.77;;;17.40;1.00;;;;;;5063973;28;20479;-68
2023/05/20 10:11:25;;;;;;;9.90;9.07;;;17.50;1.00;;;;;;5065088;28;20506;-69
2023/05/20 10:14:09;;;;;;;9.87;8.87;;;17.40;1.00;;;;;;5050664;28;20506;-69
2023/05/20 10:16:45;;;;;;;9.97;8.87;;;17.70;1.00;;;;;;5066976;28;20515;-68
2023/05/20 10:19:23;;;;;;;10.50;9.50;;;17.90;1.00;;;;;;5065009;28;20467;-68
2023/05/20 10:21:58;;;;;;;10.60;9.60;;;18.00;1.00;;;;;;5064761;28;20448;-68
2023/05/20 10:24:32;;;;;;;9.67;8.77;;;18.00;1.00;;;;;;5065257;28;20479;-69
2023/05/20 10:27:01;;;;;;;12.40;11.07;;;18.40;1.00;;;;;;5066077;28;20465;-69
2023/05/20 10:29:29;;;;;;;10.63;9.63;;;18.50;1.00;;;;;;5063213;28;20914;-69
2023/05/20 10:31:56;;;;;;;9.80;8.80;;;18.40;1.00;;;;;;5064703;28;23014;-69
2023/05/20 10:34:27;;;;;;;10.77;9.67;;;18.40;1.00;;;;;;5063432;28;20482;-68
2023/05/20 10:37:00;;;;;;;9.93;8.97;;;18.40;1.00;;;;;;5063285;28;21049;-68
2023/05/20 10:39:32;;;;;;;9.50;8.60;;;18.70;1.00;;;;;;5057989;28;20465;-68
2023/05/20 10:42:08;;;;;;;8.90;8.10;;;19.10;1.00;;;;;;5068652;28;20662;-69
2023/05/20 10:44:42;;;;;;;10.37;9.00;;;19.60;1.00;;;;;;5062052;28;20498;-69
2023/05/20 10:47:09;;;;;;;11.13;10.10;;;20.10;1.00;;;;;;5066896;28;20964;-68
2023/05/20 10:49:40;;;;;;;8.47;7.70;;;20.00;1.00;;;;;;5062701;28;20532;-69
2023/05/20 10:52:08;;;;;;;10.57;9.50;;;19.90;1.00;;;;;;5072339;28;20549;-70
2023/05/20 10:54:43;;;;;;;9.70;8.77;;;19.60;1.00;;;;;;5067192;28;20472;-69
2023/05/20 10:57:11;;;;;;;10.83;9.73;;;19.60;1.00;;;;;;5067101;28;20460;-69
2023/05/20 10:59:41;;;;;;;10.17;8.83;;;19.80;1.00;;;;;;5066432;28;20529;-69
2023/05/20 11:02:12;;;;;;;13.20;8.90;;;19.50;1.00;;;;;;5067418;27;20451;-69
2023/05/20 11:04:39;;;;;;;9.43;8.40;;;19.40;1.00;;;;;;5055531;28;20467;-69
2023/05/20 11:07:06;;;;;;;14.07;10.37;;;19.50;1.00;;;;;;5068230;28;20985;-69
2023/05/20 11:09:34;;;;;;;10.00;9.00;;;19.60;1.00;;;;;;5064520;28;20468;-68
2023/05/20 11:12:02;;;;;;;11.57;10.57;;;19.80;1.00;;;;;;5066098;28;20460;-68
2023/05/20 11:14:29;;;;;;;11.53;10.40;;;19.90;1.00;;;;;;5063448;28;20555;-69
2023/05/20 11:17:01;;;;;;;10.83;9.83;;;20.50;1.00;;;;;;5063600;28;20968;-69
2023/05/20 11:19:28;;;;;;;10.70;9.70;;;21.60;1.00;;;;;;5063441;28;20474;-69
2023/05/20 11:21:57;;;;;;;9.97;9.07;;;22.10;1.00;;;;;;5066653;28;20462;-71
2023/05/20 11:24:26;;;;;;;9.50;8.70;;;21.90;1.00;;;;;;5067095;27;20481;-70
2023/05/20 11:26:54;;;;;;;10.27;8.43;;;22.20;1.00;;;;;;5062888;28;20474;-69
2023/05/20 11:29:23;;;;;;;8.60;7.90;;;23.20;1.00;;;;;;5063590;28;20469;-70
2023/05/20 11:31:51;;;;;;;9.50;8.50;;;23.70;1.00;;;;;;5059224;28;20530;-69
2023/05/20 11:34:21;;;;;;;14.63;8.50;;;24.80;1.00;;;;;;5075858;28;20593;-70
2023/05/20 11:36:51;;;;;;;11.80;9.43;;;24.80;1.00;;;;;;5066917;28;20448;-69
2023/05/20 11:39:18;;;;;;;8.87;7.97;;;24.70;1.00;;;;;;5065051;28;20472;-69
2023/05/20 11:41:45;;;;;;;9.00;8.10;;;24.30;1.00;;;;;;5067783;28;20559;-68
2023/05/20 11:44:13;;;;;;;8.90;8.10;;;23.80;1.00;;;;;;5067584;28;20972;-71
2023/05/20 11:46:45;;;;;;;10.70;9.60;;;22.90;1.00;;;;;;5066188;28;20517;-69
2023/05/20 11:49:14;;;;;;;10.77;9.80;;;22.90;1.00;;;;;;5061564;28;20551;-70
2023/05/20 11:51:41;;;;;;;9.77;8.77;;;23.10;1.00;;;;;;5066200;28;20457;-69
2023/05/20 11:54:08;;;;;;;9.73;8.93;;;22.90;1.00;;;;;;5065932;28;20784;-70
2023/05/20 11:56:36;;;;;;;9.40;8.43;;;23.00;1.00;;;;;;5066012;27;20463;-69
2023/05/20 11:59:05;;;;;;;9.10;8.30;;;24.50;1.00;;;;;;5066291;28;20489;-69
2023/05/20 12:01:36;;;;;;;9.10;8.20;;;26.30;1.00;;;;;;5067501;28;20819;-68
2023/05/20 12:04:05;;;;;;;9.70;8.77;;;26.40;1.00;;;;;;5063030;28;20467;-69
2023/05/20 12:06:32;;;;;;;9.10;8.30;;;26.30;1.00;;;;;;5065301;28;20464;-68
2023/05/20 12:08:59;;;;;;;9.40;8.37;;;26.90;1.00;;;;;;5063158;28;20510;-67
2023/05/20 12:11:26;;;;;;;9.13;8.17;;;27.40;1.00;;;;;;5065492;28;20572;-68
2023/05/20 12:13:53;;;;;;;9.67;8.90;;;28.00;1.00;;;;;;5063947;28;20539;-68
2023/05/20 12:16:20;;;;;;;9.33;8.43;;;28.30;1.00;;;;;;5068114;28;20508;-68
2023/05/20 12:18:47;;;;;;;11.20;10.13;;;28.30;1.00;;;;;;5066405;28;20473;-68
2023/05/20 12:21:15;;;;;;;10.03;9.03;;;27.10;1.00;;;;;;5070332;28;20482;-69
2023/05/20 12:23:42;;;;;;;12.33;10.10;;;26.40;1.00;;;;;;5066403;28;20474;-68
2023/05/20 12:26:09;;;;;;;11.10;9.50;;;25.90;1.00;;;;;;5067684;28;20461;-68
2023/05/20 12:28:36;;;;;;;10.47;9.47;;;25.80;1.00;;;;;;5062384;28;20900;-68
2023/05/20 12:31:03;;;;;;;11.30;9.97;;;27.00;1.00;;;;;;5066030;28;20543;-68
2023/05/20 12:33:30;;;;;;;10.50;7.83;;;28.20;1.00;;;;;;5059235;28;20494;-68
2023/05/20 12:35:57;;;;;;;9.53;8.63;;;29.60;1.00;;;;;;5063554;28;20464;-69
2023/05/20 12:38:26;;;;;;;9.67;8.77;;;30.40;1.00;;;;;;5063287;28;20559;-68
2023/05/20 12:40:53;;;;;;;10.07;9.27;;;30.40;1.00;;;;;;5063858;28;20988;-68
2023/05/20 12:43:20;;;;;;;12.27;9.67;;;29.50;1.00;;;;;;5063574;28;20471;-68
2023/05/20 12:45:47;;;;;;;9.97;9.07;;;28.70;1.00;;;;;;5067828;28;20474;-69
2023/05/20 12:48:14;;;;;;;9.43;8.63;;;28.60;1.00;;;;;;5064995;27;20839;-68
2023/05/20 12:50:41;;;;;;;9.23;8.43;;;29.50;1.00;;;;;;5064829;28;20509;-68
2023/05/20 12:53:08;;;;;;;9.93;8.73;;;30.00;1.00;;;;;;5063644;28;20905;-69
2023/05/20 12:55:39;;;;;;;9.03;8.20;;;30.70;1.00;;;;;;5067672;28;20544;-70
2023/05/20 12:58:08;;;;;;;10.47;9.40;;;31.30;1.00;;;;;;5066118;28;20518;-68
2023/05/20 13:00:35;;;;;;;10.60;9.50;;;31.20;1.00;;;;;;5066138;28;20455;-68